Chicago Rockford International Airport Chicago,Rockford US
ICAO: KRFD
IATA: RFD
Category: Large
Scheduled Services: Yes

Elevation: 742 ft
TransAlt. 18000 ft.

Airport Communications:
ROCKFORD APP/DEP:121
ATIS:126.7
CLNC DEL:119.25
GND:121.9
KANKAKEE RDO:122.65
ROCKFORD TWR:118.3
UNICOM:122.95

KRFD Zoom In..

If you have problems with the map follow the link
https://www.worldairports.se/pages/airport.php?
ICAO=KRFD

Runways:

(A) RW 01 length 8200 ft width 150 ft
ILS 109.30 / hdg 5

(B) RW 07 length 10002 ft width 150 ft
ILS 109.55 / hdg 65

(C) RW 19 length 8200 ft width 150 ft
---- / hdg 185

(D) RW 25 length 10002 ft width 150 ft
---- / hdg 245

Location; KRFD
Day. 19 / Time. 18.54 Zulu
* Altimeter: 30.37
* Temperature: -10° c. -14°f.
* Wind from: 310° Speed 14 kn.
Dewpoint: -15° c.
Visibility: 10 Statute Miles.
Clouds: Few 1700 ft.
Clouds: Few 5000 ft.

KRFD 191854Z 31014KT 10SM FEW017 FEW050 M10/M15 A3037 RMK AO2 SLP301 T11001150 $


Wind From 310°
Speed 14 kn.

 
 
jpsmedia worldairports.se 2020   terms of use